Time;durP1;ratioP1;P1;durP2;ratioP2;P2;SDS_P1;SDS_P2;PMS_P1;PMS_P2;Temp;Humidity;BMP_temperature;BMP_pressure;BME280_temperature;BME280_humidity;BME280_pressure;Samples;Min_cycle;Max_cycle;Signal;HPM_P1;HPM_P2
2024/01/05 00:02:01;;;;;;;9.27;3.60;;;;;;;;;;5059427;28;20054;-87
2024/01/05 00:04:28;;;;;;;8.00;3.53;;;;;;;;;;5059481;28;20057;-87
2024/01/05 00:06:55;;;;;;;10.45;4.47;;;;;;;;;;5046206;28;20049;-88
2024/01/05 00:09:23;;;;;;;11.25;3.60;;;;;;;;;;5046098;28;20049;-87
2024/01/05 00:11:51;;;;;;;13.90;4.32;;;;;;;;;;5042934;28;20049;-88
2024/01/05 00:14:19;;;;;;;11.38;3.95;;;;;;;;;;5042291;28;20045;-87
2024/01/05 00:16:46;;;;;;;16.75;5.05;;;;;;;;;;5045713;28;20076;-88
2024/01/05 00:19:14;;;;;;;8.07;4.03;;;;;;;;;;5047587;28;20069;-88
2024/01/05 00:21:41;;;;;;;10.50;4.13;;;;;;;;;;5056834;28;20417;-88
2024/01/05 00:24:08;;;;;;;8.00;3.45;;;;;;;;;;5034347;28;20049;-88
2024/01/05 00:26:40;;;;;;;9.77;3.42;;;;;;;;;;5044209;28;20081;-88
2024/01/05 00:29:07;;;;;;;9.45;3.22;;;;;;;;;;5058959;28;20053;-88
2024/01/05 00:31:35;;;;;;;12.80;3.00;;;;;;;;;;5060090;28;20472;-88
2024/01/05 00:34:02;;;;;;;9.93;3.15;;;;;;;;;;5045696;28;20489;-88
2024/01/05 00:36:30;;;;;;;7.75;3.08;;;;;;;;;;5045160;28;20069;-88
2024/01/05 00:38:57;;;;;;;9.68;3.53;;;;;;;;;;5058785;28;20080;-88
2024/01/05 00:41:24;;;;;;;14.80;3.90;;;;;;;;;;5058691;28;20045;-88
2024/01/05 00:43:51;;;;;;;16.38;4.78;;;;;;;;;;5058725;28;20054;-88
2024/01/05 00:46:19;;;;;;;13.18;3.92;;;;;;;;;;5057790;28;20459;-89
2024/01/05 00:48:46;;;;;;;9.57;3.90;;;;;;;;;;5037240;28;20516;-88
2024/01/05 00:51:13;;;;;;;7.15;3.28;;;;;;;;;;5045821;28;20064;-88
2024/01/05 00:53:41;;;;;;;9.10;3.75;;;;;;;;;;5049528;28;20061;-89
2024/01/05 00:56:08;;;;;;;19.63;4.18;;;;;;;;;;5066902;28;20060;-89
2024/01/05 00:58:35;;;;;;;17.58;4.20;;;;;;;;;;5059734;28;20049;-88
2024/01/05 01:01:06;;;;;;;12.65;3.78;;;;;;;;;;5045277;28;20199;-88
2024/01/05 01:03:33;;;;;;;11.30;3.75;;;;;;;;;;5044093;28;20493;-88
2024/01/05 01:06:00;;;;;;;10.57;3.47;;;;;;;;;;5058135;28;20053;-88
2024/01/05 01:08:27;;;;;;;17.83;4.00;;;;;;;;;;5057788;28;20509;-88
2024/01/05 01:10:55;;;;;;;11.35;4.18;;;;;;;;;;5029800;28;20554;-88
2024/01/05 01:13:22;;;;;;;9.95;3.78;;;;;;;;;;5029384;28;20069;-87
2024/01/05 01:15:49;;;;;;;14.40;3.83;;;;;;;;;;5041172;28;20057;-87
2024/01/05 01:18:16;;;;;;;17.08;4.00;;;;;;;;;;5041467;28;20498;-88
2024/01/05 01:20:44;;;;;;;9.05;3.70;;;;;;;;;;5043992;28;20053;-88
2024/01/05 01:23:11;;;;;;;7.95;3.35;;;;;;;;;;5044973;28;20049;-88
2024/01/05 01:25:38;;;;;;;14.98;4.10;;;;;;;;;;5042699;28;20110;-88
2024/01/05 01:28:06;;;;;;;8.85;3.35;;;;;;;;;;5057754;28;20050;-88
2024/01/05 01:30:33;;;;;;;7.55;3.78;;;;;;;;;;5058659;28;20049;-88
2024/01/05 01:33:00;;;;;;;16.33;3.80;;;;;;;;;;5044754;28;20048;-87
2024/01/05 01:35:28;;;;;;;10.82;3.72;;;;;;;;;;5035982;28;20111;-88
2024/01/05 01:37:55;;;;;;;15.93;4.63;;;;;;;;;;5044625;28;20087;-89
2024/01/05 01:40:23;;;;;;;7.10;3.30;;;;;;;;;;5037030;28;20057;-88
2024/01/05 01:42:50;;;;;;;7.95;3.80;;;;;;;;;;5044233;28;20452;-88
2024/01/05 01:45:17;;;;;;;13.07;3.45;;;;;;;;;;5044192;28;20140;-88
2024/01/05 01:47:46;;;;;;;16.05;4.50;;;;;;;;;;5041741;28;20087;-88
2024/01/05 01:50:14;;;;;;;16.85;5.32;;;;;;;;;;5057366;28;20045;-88
2024/01/05 01:52:44;;;;;;;10.60;3.78;;;;;;;;;;5059508;28;20107;-88
2024/01/05 01:55:12;;;;;;;18.35;4.85;;;;;;;;;;5044237;28;20465;-88
2024/01/05 01:57:40;;;;;;;16.75;4.72;;;;;;;;;;5042468;28;20057;-88
2024/01/05 02:00:07;;;;;;;11.73;4.20;;;;;;;;;;5057012;28;20061;-88
2024/01/05 02:02:36;;;;;;;11.52;4.43;;;;;;;;;;5058377;28;20072;-88
2024/01/05 02:05:05;;;;;;;16.00;5.50;;;;;;;;;;5044255;28;20395;-88
2024/01/05 02:07:32;;;;;;;13.23;4.93;;;;;;;;;;5043856;28;20544;-87
2024/01/05 02:10:00;;;;;;;10.27;4.38;;;;;;;;;;5076978;28;20053;-88
2024/01/05 02:12:27;;;;;;;10.55;4.25;;;;;;;;;;5043959;28;20087;-88
2024/01/05 02:14:54;;;;;;;21.35;5.20;;;;;;;;;;5057013;28;20053;-88
2024/01/05 02:17:31;;;;;;;13.93;4.50;;;;;;;;;;5056991;28;20053;-88
2024/01/05 02:19:59;;;;;;;12.27;4.53;;;;;;;;;;5033257;28;20061;-89
2024/01/05 02:22:30;;;;;;;11.65;3.97;;;;;;;;;;5056904;28;20108;-88
2024/01/05 02:24:57;;;;;;;16.42;5.15;;;;;;;;;;5039580;28;20049;-88
2024/01/05 02:27:25;;;;;;;10.80;4.10;;;;;;;;;;5040619;28;20119;-88
2024/01/05 02:29:52;;;;;;;18.27;5.60;;;;;;;;;;5040226;28;20383;-89
2024/01/05 02:32:20;;;;;;;13.65;4.78;;;;;;;;;;5040587;28;20064;-88
2024/01/05 02:34:47;;;;;;;14.93;4.95;;;;;;;;;;5042969;28;20125;-88
2024/01/05 02:37:14;;;;;;;9.45;3.80;;;;;;;;;;5044018;28;20064;-88
2024/01/05 02:39:41;;;;;;;11.88;4.28;;;;;;;;;;5041856;28;20048;-88
2024/01/05 02:42:09;;;;;;;19.58;4.97;;;;;;;;;;5056756;28;20049;-88
2024/01/05 02:44:36;;;;;;;13.13;4.20;;;;;;;;;;5058195;28;20069;-88
2024/01/05 02:47:03;;;;;;;16.23;5.00;;;;;;;;;;5043614;28;20464;-88
2024/01/05 02:49:30;;;;;;;21.50;4.90;;;;;;;;;;5042974;28;20053;-88
2024/01/05 02:51:58;;;;;;;17.75;4.85;;;;;;;;;;5056637;28;20049;-89
2024/01/05 02:54:25;;;;;;;12.40;4.50;;;;;;;;;;5056443;28;20133;-89
2024/01/05 02:56:52;;;;;;;19.77;4.72;;;;;;;;;;5040215;28;20144;-88
2024/01/05 02:59:19;;;;;;;9.65;4.03;;;;;;;;;;5056828;28;20064;-88
2024/01/05 03:01:49;;;;;;;13.70;4.53;;;;;;;;;;5048193;28;20107;-89
2024/01/05 03:04:16;;;;;;;13.27;3.90;;;;;;;;;;5056549;28;20057;-89
2024/01/05 03:06:44;;;;;;;11.38;4.10;;;;;;;;;;5064794;28;20084;-88
2024/01/05 03:09:11;;;;;;;10.77;4.00;;;;;;;;;;5056597;28;20087;-88
2024/01/05 03:11:39;;;;;;;8.48;3.95;;;;;;;;;;5065722;28;20059;-88
2024/01/05 03:14:06;;;;;;;13.93;4.78;;;;;;;;;;5060222;28;20073;-88
2024/01/05 03:16:33;;;;;;;14.30;4.22;;;;;;;;;;5061318;28;20045;-88
2024/01/05 03:19:01;;;;;;;11.57;4.78;;;;;;;;;;5046806;28;20110;-88
2024/01/05 03:21:28;;;;;;;11.52;4.45;;;;;;;;;;5046862;28;20085;-88
2024/01/05 03:23:55;;;;;;;12.30;4.75;;;;;;;;;;5065147;28;20060;-89
2024/01/05 03:26:23;;;;;;;10.68;4.10;;;;;;;;;;5069168;28;20156;-88
2024/01/05 03:28:50;;;;;;;12.50;3.75;;;;;;;;;;5046922;28;20481;-88
2024/01/05 03:31:17;;;;;;;11.05;3.88;;;;;;;;;;5046873;28;20315;-89
2024/01/05 03:33:45;;;;;;;11.80;4.22;;;;;;;;;;5044448;28;20053;-88
2024/01/05 03:36:13;;;;;;;10.93;3.92;;;;;;;;;;5060038;28;20049;-88
2024/01/05 03:38:41;;;;;;;6.15;3.25;;;;;;;;;;5061778;28;20383;-88
2024/01/05 03:41:09;;;;;;;10.35;4.18;;;;;;;;;;5046863;28;20067;-88
2024/01/05 03:43:36;;;;;;;9.75;4.25;;;;;;;;;;5045066;28;20045;-88
2024/01/05 03:46:03;;;;;;;15.23;4.85;;;;;;;;;;5059989;28;20054;-88
2024/01/05 03:48:30;;;;;;;13.82;4.93;;;;;;;;;;5059819;28;20045;-88
2024/01/05 03:50:58;;;;;;;11.50;4.40;;;;;;;;;;5059563;28;20413;-88
2024/01/05 03:53:25;;;;;;;13.93;5.68;;;;;;;;;;5059351;28;20050;-88
2024/01/05 03:55:52;;;;;;;10.88;4.65;;;;;;;;;;5063038;28;20497;-88
2024/01/05 03:58:20;;;;;;;12.57;4.45;;;;;;;;;;5046518;28;20137;-88
2024/01/05 04:00:47;;;;;;;11.32;3.97;;;;;;;;;;5043655;28;20572;-88
2024/01/05 04:03:16;;;;;;;14.00;4.65;;;;;;;;;;5059387;28;20053;-88
2024/01/05 04:05:44;;;;;;;6.85;4.03;;;;;;;;;;5061547;28;20103;-88
2024/01/05 04:08:12;;;;;;;12.02;4.50;;;;;;;;;;5033952;28;20082;-89
2024/01/05 04:10:40;;;;;;;13.48;3.95;;;;;;;;;;5041169;28;20052;-89
2024/01/05 04:13:07;;;;;;;11.73;4.00;;;;;;;;;;5042942;28;20107;-88
2024/01/05 04:15:35;;;;;;;8.40;3.72;;;;;;;;;;5060357;28;20088;-89
2024/01/05 04:18:03;;;;;;;9.35;3.35;;;;;;;;;;5040967;28;20042;-89
2024/01/05 04:20:31;;;;;;;13.05;4.03;;;;;;;;;;5042684;28;20460;-88
2024/01/05 04:22:59;;;;;;;13.65;4.55;;;;;;;;;;5049558;28;20099;-88
2024/01/05 04:25:26;;;;;;;17.73;4.60;;;;;;;;;;5058421;28;20391;-89
2024/01/05 04:27:53;;;;;;;11.30;4.32;;;;;;;;;;5046314;28;20049;-89
2024/01/05 04:30:21;;;;;;;15.30;5.70;;;;;;;;;;5046222;28;20106;-88
2024/01/05 04:32:50;;;;;;;9.50;4.20;;;;;;;;;;5042912;28;20489;-86
2024/01/05 04:35:17;;;;;;;12.45;5.45;;;;;;;;;;5059152;28;20053;-88
2024/01/05 04:37:44;;;;;;;8.32;4.30;;;;;;;;;;5061690;28;20107;-88
2024/01/05 04:40:12;;;;;;;17.55;4.90;;;;;;;;;;5060551;28;20053;-88
2024/01/05 04:42:39;;;;;;;12.30;4.65;;;;;;;;;;5043774;28;20091;-88
2024/01/05 04:45:07;;;;;;;8.50;4.13;;;;;;;;;;5058667;28;20059;-88
2024/01/05 04:47:35;;;;;;;17.08;5.75;;;;;;;;;;5058458;28;20425;-88
2024/01/05 04:50:04;;;;;;;11.52;4.70;;;;;;;;;;5042239;28;20053;-88
2024/01/05 04:52:34;;;;;;;16.38;4.43;;;;;;;;;;5042917;28;20445;-88
2024/01/05 04:55:01;;;;;;;13.70;4.85;;;;;;;;;;5045661;28;20072;-88
2024/01/05 04:57:29;;;;;;;14.63;4.53;;;;;;;;;;5044694;28;20493;-89
2024/01/05 04:59:56;;;;;;;14.07;5.35;;;;;;;;;;5058479;28;20064;-88
2024/01/05 05:02:23;;;;;;;12.43;5.70;;;;;;;;;;5058362;28;20053;-89
2024/01/05 05:04:50;;;;;;;13.13;4.65;;;;;;;;;;5061590;28;20567;-88
2024/01/05 05:07:18;;;;;;;15.85;4.93;;;;;;;;;;5045306;28;20053;-88
2024/01/05 05:09:45;;;;;;;15.85;4.90;;;;;;;;;;5042539;28;20075;-88
2024/01/05 05:12:12;;;;;;;16.27;6.05;;;;;;;;;;5043605;28;20084;-88
2024/01/05 05:14:39;;;;;;;12.18;5.63;;;;;;;;;;5025190;28;20082;-88
2024/01/05 05:17:07;;;;;;;17.23;6.35;;;;;;;;;;5045105;28;20057;-88
2024/01/05 05:19:34;;;;;;;9.55;5.45;;;;;;;;;;5019941;28;20066;-89
2024/01/05 05:22:02;;;;;;;19.85;7.13;;;;;;;;;;5044884;28;20094;-88
2024/01/05 05:24:29;;;;;;;26.02;6.45;;;;;;;;;;5044152;28;20056;-89
2024/01/05 05:26:57;;;;;;;10.57;5.60;;;;;;;;;;5053707;28;20052;-88
2024/01/05 05:29:24;;;;;;;18.90;7.03;;;;;;;;;;5028901;28;20045;-88
2024/01/05 05:31:52;;;;;;;20.80;6.15;;;;;;;;;;5049801;28;20063;-89
2024/01/05 05:34:19;;;;;;;17.10;6.90;;;;;;;;;;5057672;28;20088;-88
2024/01/05 05:36:46;;;;;;;13.35;5.93;;;;;;;;;;5059925;28;20072;-88
2024/01/05 05:39:13;;;;;;;12.32;5.28;;;;;;;;;;5046372;28;20107;-89
2024/01/05 05:41:41;;;;;;;13.70;4.53;;;;;;;;;;5059713;28;20491;-89
2024/01/05 05:44:08;;;;;;;15.90;5.40;;;;;;;;;;5044634;28;20057;-88
2024/01/05 05:46:36;;;;;;;10.30;4.85;;;;;;;;;;5042942;28;20045;-89
2024/01/05 05:49:03;;;;;;;9.90;3.90;;;;;;;;;;5057786;28;20474;-88
2024/01/05 05:51:31;;;;;;;8.07;4.20;;;;;;;;;;5058157;28;20053;-89
2024/01/05 05:53:58;;;;;;;15.60;4.13;;;;;;;;;;5053773;28;20124;-88
2024/01/05 05:56:25;;;;;;;10.18;4.25;;;;;;;;;;5050668;28;20052;-89
2024/01/05 05:58:52;;;;;;;9.85;4.68;;;;;;;;;;5049623;28;20534;-89
2024/01/05 06:01:20;;;;;;;7.82;3.95;;;;;;;;;;5064921;28;20107;-89
2024/01/05 06:03:47;;;;;;;11.52;4.03;;;;;;;;;;5036128;28;20049;-88
2024/01/05 06:06:21;;;;;;;8.60;3.40;;;;;;;;;;5043948;28;20098;-89
2024/01/05 06:08:49;;;;;;;8.20;2.80;;;;;;;;;;5041169;28;20081;-89
2024/01/05 06:11:16;;;;;;;17.00;4.20;;;;;;;;;;5050303;28;20045;-89
2024/01/05 06:13:44;;;;;;;11.25;4.20;;;;;;;;;;5039388;28;20079;-88
2024/01/05 06:16:11;;;;;;;12.13;5.78;;;;;;;;;;5057386;28;20099;-87
2024/01/05 06:18:39;;;;;;;7.68;3.47;;;;;;;;;;5043285;28;20125;-88
2024/01/05 06:21:06;;;;;;;10.70;4.20;;;;;;;;;;5043988;28;20416;-89
2024/01/05 06:23:33;;;;;;;20.58;10.57;;;;;;;;;;5042844;28;20061;-89
2024/01/05 06:26:01;;;;;;;11.57;5.38;;;;;;;;;;5056809;28;20489;-88
2024/01/05 06:28:28;;;;;;;12.10;5.78;;;;;;;;;;5056681;28;20064;-89
2024/01/05 06:30:55;;;;;;;18.45;8.55;;;;;;;;;;5028729;28;20478;-88
2024/01/05 06:33:23;;;;;;;17.35;8.68;;;;;;;;;;5041906;28;20144;-88
2024/01/05 06:35:50;;;;;;;14.00;6.32;;;;;;;;;;5035575;28;20135;-89
2024/01/05 06:38:18;;;;;;;16.48;6.13;;;;;;;;;;5044015;28;20073;-88
2024/01/05 06:40:46;;;;;;;22.15;8.48;;;;;;;;;;5041317;28;20131;-88
2024/01/05 06:43:13;;;;;;;19.38;7.15;;;;;;;;;;5040283;28;20053;-88
2024/01/05 06:45:40;;;;;;;11.35;6.50;;;;;;;;;;5058202;28;20053;-88
2024/01/05 06:48:07;;;;;;;16.30;7.30;;;;;;;;;;5047230;28;20045;-88
2024/01/05 06:50:35;;;;;;;19.13;6.57;;;;;;;;;;5047230;28;20438;-88
2024/01/05 06:53:03;;;;;;;20.50;6.03;;;;;;;;;;5060856;28;20442;-89
2024/01/05 06:55:31;;;;;;;13.27;4.90;;;;;;;;;;5044161;28;20076;-89
2024/01/05 06:57:58;;;;;;;17.30;5.88;;;;;;;;;;5032447;28;20049;-88
2024/01/05 07:00:25;;;;;;;18.35;6.60;;;;;;;;;;5047721;28;20049;-88
2024/01/05 07:02:52;;;;;;;20.15;10.80;;;;;;;;;;5052785;28;20088;-88
2024/01/05 07:05:20;;;;;;;60.40;29.35;;;;;;;;;;5060876;28;20049;-88
2024/01/05 07:07:47;;;;;;;38.30;21.48;;;;;;;;;;5057799;28;20435;-88
2024/01/05 07:10:14;;;;;;;36.40;21.48;;;;;;;;;;5037697;28;20053;-88
2024/01/05 07:12:42;;;;;;;26.98;18.77;;;;;;;;;;5060635;28;20536;-89
2024/01/05 07:15:09;;;;;;;18.15;5.60;;;;;;;;;;5043962;28;20049;-88
2024/01/05 07:17:36;;;;;;;13.15;4.32;;;;;;;;;;5045573;28;20076;-89
2024/01/05 07:20:04;;;;;;;14.55;4.85;;;;;;;;;;5036975;28;20050;-89
2024/01/05 07:22:31;;;;;;;17.95;4.53;;;;;;;;;;5041438;28;20122;-89
2024/01/05 07:24:59;;;;;;;15.73;4.45;;;;;;;;;;5060304;28;20133;-88
2024/01/05 07:27:26;;;;;;;26.77;7.40;;;;;;;;;;5060110;28;20053;-89
2024/01/05 07:29:55;;;;;;;17.73;8.30;;;;;;;;;;5031365;28;20076;-90
2024/01/05 07:32:22;;;;;;;18.17;9.15;;;;;;;;;;5046995;28;20084;-88
2024/01/05 07:34:50;;;;;;;17.90;7.55;;;;;;;;;;5043677;28;20099;-88
2024/01/05 07:37:18;;;;;;;22.60;8.23;;;;;;;;;;5060258;28;20119;-88
2024/01/05 07:39:45;;;;;;;23.27;7.00;;;;;;;;;;5062688;28;20107;-89
2024/01/05 07:42:12;;;;;;;26.42;12.93;;;;;;;;;;5046849;28;20122;-89
2024/01/05 07:44:40;;;;;;;15.90;6.88;;;;;;;;;;5044994;28;20055;-89
2024/01/05 07:47:09;;;;;;;16.80;7.20;;;;;;;;;;5060087;28;20103;-89
2024/01/05 07:49:36;;;;;;;13.73;5.68;;;;;;;;;;5061611;28;20077;-88
2024/01/05 07:52:04;;;;;;;13.98;4.72;;;;;;;;;;5046836;28;20056;-89
2024/01/05 07:54:31;;;;;;;15.75;5.50;;;;;;;;;;5046046;28;20049;-88
2024/01/05 07:56:58;;;;;;;16.83;6.82;;;;;;;;;;5060090;28;20136;-89
2024/01/05 07:59:25;;;;;;;14.88;8.50;;;;;;;;;;5058868;28;20065;-90
2024/01/05 08:01:52;;;;;;;13.57;4.93;;;;;;;;;;5063691;28;20049;-89
2024/01/05 08:04:20;;;;;;;14.05;4.25;;;;;;;;;;5046262;28;20049;-90
2024/01/05 08:06:48;;;;;;;16.00;5.28;;;;;;;;;;5038009;28;20521;-89
2024/01/05 08:09:15;;;;;;;13.82;4.22;;;;;;;;;;5046394;28;20057;-89
2024/01/05 08:11:42;;;;;;;15.77;4.75;;;;;;;;;;5044265;28;20493;-87
2024/01/05 08:14:10;;;;;;;10.02;3.85;;;;;;;;;;5059624;28;20059;-89
2024/01/05 08:16:38;;;;;;;12.50;4.10;;;;;;;;;;5044504;28;20057;-89
2024/01/05 08:19:05;;;;;;;9.73;3.42;;;;;;;;;;5045750;28;20464;-89
2024/01/05 08:21:32;;;;;;;9.02;3.65;;;;;;;;;;5045268;28;20060;-90
2024/01/05 08:24:00;;;;;;;7.93;3.20;;;;;;;;;;5064966;28;20049;-89
2024/01/05 08:26:27;;;;;;;8.90;2.75;;;;;;;;;;5044176;28;20504;-89
2024/01/05 08:28:55;;;;;;;11.85;3.70;;;;;;;;;;5059555;28;20494;-89
2024/01/05 08:31:22;;;;;;;12.23;3.58;;;;;;;;;;5059343;28;20429;-89
2024/01/05 08:33:49;;;;;;;8.45;3.05;;;;;;;;;;5050798;28;20061;-91
2024/01/05 08:36:17;;;;;;;5.75;3.00;;;;;;;;;;5058918;28;20140;-90
2024/01/05 08:38:45;;;;;;;9.15;2.50;;;;;;;;;;5061734;28;20453;-91
2024/01/05 08:41:12;;;;;;;8.10;2.83;;;;;;;;;;5046066;28;20114;-90
2024/01/05 08:43:43;;;;;;;11.60;3.33;;;;;;;;;;5027430;28;20073;-91
2024/01/05 08:46:11;;;;;;;13.60;5.18;;;;;;;;;;5065428;28;20135;-89
2024/01/05 08:48:39;;;;;;;11.48;5.82;;;;;;;;;;5043671;28;20497;-89
2024/01/05 08:51:06;;;;;;;10.38;3.30;;;;;;;;;;5058740;28;20053;-89
2024/01/05 08:53:34;;;;;;;12.93;5.55;;;;;;;;;;5059482;28;20053;-90
2024/01/05 08:56:01;;;;;;;9.95;4.35;;;;;;;;;;5045834;28;20118;-90
2024/01/05 08:58:28;;;;;;;9.48;3.63;;;;;;;;;;5045436;28;20107;-90
2024/01/05 09:00:55;;;;;;;10.02;3.25;;;;;;;;;;5058777;28;20073;-91
2024/01/05 09:03:23;;;;;;;10.07;2.92;;;;;;;;;;5050837;28;20074;-91
2024/01/05 09:05:50;;;;;;;10.70;2.35;;;;;;;;;;5045268;28;20127;-90
2024/01/05 09:08:18;;;;;;;6.55;2.80;;;;;;;;;;5045375;28;20110;-90
2024/01/05 09:10:45;;;;;;;9.20;2.80;;;;;;;;;;5042579;28;20106;-92
2024/01/05 09:13:13;;;;;;;5.20;2.00;;;;;;;;;;5064840;28;20082;-92
2024/01/05 09:15:40;;;;;;;6.93;1.85;;;;;;;;;;5043247;28;20076;-92
2024/01/05 09:18:07;;;;;;;4.18;1.60;;;;;;;;;;5058393;28;20057;-91
2024/01/05 09:20:34;;;;;;;3.28;2.05;;;;;;;;;;5059619;28;20609;-91
2024/01/05 09:23:02;;;;;;;6.20;1.92;;;;;;;;;;5045194;28;20072;-91
2024/01/05 09:25:30;;;;;;;5.75;1.55;;;;;;;;;;5044370;28;20053;-91
2024/01/05 09:28:01;;;;;;;4.07;1.63;;;;;;;;;;5058148;28;20160;-92
2024/01/05 09:30:28;;;;;;;9.68;1.98;;;;;;;;;;5057819;28;20050;-91
2024/01/05 09:32:57;;;;;;;3.03;1.65;;;;;;;;;;5029868;28;20053;-92
2024/01/05 09:35:25;;;;;;;5.63;1.42;;;;;;;;;;5028762;28;20049;-91
2024/01/05 09:37:53;;;;;;;7.90;1.50;;;;;;;;;;5047797;28;20049;-93
2024/01/05 09:40:21;;;;;;;3.80;1.85;;;;;;;;;;5059388;28;20076;-91
2024/01/05 09:42:50;;;;;;;3.28;1.83;;;;;;;;;;5042379;28;20473;-91
2024/01/05 09:45:21;;;;;;;9.30;1.70;;;;;;;;;;5057953;28;20057;-93
2024/01/05 09:47:49;;;;;;;3.90;1.65;;;;;;;;;;5060849;28;20547;-89
2024/01/05 09:50:17;;;;;;;4.18;1.90;;;;;;;;;;5045068;28;20059;-91
2024/01/05 09:52:45;;;;;;;6.72;1.90;;;;;;;;;;5042236;28;20472;-92
2024/01/05 09:55:12;;;;;;;5.88;2.20;;;;;;;;;;5057613;28;20466;-90
2024/01/05 09:57:43;;;;;;;3.53;1.40;;;;;;;;;;5055482;28;20058;-92
2024/01/05 10:00:14;;;;;;;2.55;0.98;;;;;;;;;;5033320;28;20540;-91
2024/01/05 10:02:43;;;;;;;3.03;1.58;;;;;;;;;;5042356;28;20045;-92
2024/01/05 10:05:11;;;;;;;8.07;5.50;;;;;;;;;;5057395;28;20540;-90
2024/01/05 10:07:44;;;;;;;5.65;2.17;;;;;;;;;;5059170;28;20076;-91
2024/01/05 10:10:12;;;;;;;3.40;2.08;;;;;;;;;;5044167;28;20057;-91
2024/01/05 10:12:40;;;;;;;2.55;1.48;;;;;;;;;;5042533;28;20052;-92
2024/01/05 10:15:08;;;;;;;3.95;1.60;;;;;;;;;;5057294;28;20053;-92
2024/01/05 10:17:36;;;;;;;5.57;2.25;;;;;;;;;;5065915;28;20060;-92
2024/01/05 10:20:16;;;;;;;6.25;1.90;;;;;;;;;;5057082;28;20057;-91
2024/01/05 10:22:46;;;;;;;5.13;4.13;;;;;;;;;;5059285;28;20109;-93
2024/01/05 10:25:18;;;;;;;4.78;1.30;;;;;;;;;;5044403;28;20048;-91
2024/01/05 10:27:47;;;;;;;4.05;1.70;;;;;;;;;;5041613;28;20067;-93
2024/01/05 10:30:25;;;;;;;4.32;1.50;;;;;;;;;;5057297;28;20049;-91
2024/01/05 10:33:02;;;;;;;5.07;2.80;;;;;;;;;;5049390;28;20051;-92
2024/01/05 10:35:30;;;;;;;3.47;1.25;;;;;;;;;;5057482;28;20662;-89
2024/01/05 10:38:09;;;;;;;3.80;1.10;;;;;;;;;;5044499;28;20082;-91
2024/01/05 10:40:37;;;;;;;8.00;1.88;;;;;;;;;;5043122;28;20044;-91
2024/01/05 10:43:11;;;;;;;6.75;1.30;;;;;;;;;;5057335;28;20103;-91
2024/01/05 10:45:39;;;;;;;3.28;1.40;;;;;;;;;;5042072;28;20494;-90
2024/01/05 10:48:13;;;;;;;4.05;1.33;;;;;;;;;;5044293;28;20136;-91
2024/01/05 10:50:43;;;;;;;2.58;1.23;;;;;;;;;;5025911;28;20045;-90
2024/01/05 10:53:10;;;;;;;7.13;1.80;;;;;;;;;;5063656;28;20060;-89
2024/01/05 10:55:38;;;;;;;4.78;1.40;;;;;;;;;;5068761;28;20065;-90
2024/01/05 10:58:07;;;;;;;3.03;1.20;;;;;;;;;;5044487;28;20045;-90
2024/01/05 11:00:35;;;;;;;3.30;1.30;;;;;;;;;;5035888;28;20482;-91
2024/01/05 11:03:15;;;;;;;3.30;1.40;;;;;;;;;;5044012;28;20049;-90
2024/01/05 11:05:43;;;;;;;4.28;1.63;;;;;;;;;;5039206;28;20500;-89
2024/01/05 11:08:20;;;;;;;4.78;1.38;;;;;;;;;;5032596;28;20072;-90
2024/01/05 11:10:53;;;;;;;2.75;1.20;;;;;;;;;;5041178;28;20057;-91
2024/01/05 11:13:21;;;;;;;;;;;;;;;;;;5057465;28;20115;-91
2024/01/05 11:16:10;;;;;;;3.92;1.00;;;;;;;;;;5043502;28;19959;-90
2024/01/05 11:18:56;;;;;;;1.70;1.08;;;;;;;;;;5041885;28;20049;-90
2024/01/05 11:21:44;;;;;;;5.90;1.45;;;;;;;;;;5057266;28;20132;-89
2024/01/05 11:24:13;;;;;;;4.75;1.30;;;;;;;;;;5034868;28;20049;-91
2024/01/05 11:26:42;;;;;;;7.50;1.50;;;;;;;;;;5050559;28;20045;-90
2024/01/05 11:29:12;;;;;;;3.03;1.30;;;;;;;;;;5043627;28;20057;-89
2024/01/05 11:31:45;;;;;;;4.78;1.63;;;;;;;;;;5025730;28;20069;-89
2024/01/05 11:34:32;;;;;;;3.38;1.35;;;;;;;;;;5059540;28;20049;-90
2024/01/05 11:37:00;;;;;;;3.05;1.30;;;;;;;;;;5036599;28;20061;-90
2024/01/05 11:39:53;;;;;;;10.15;3.03;;;;;;;;;;5060133;28;20387;-89
2024/01/05 11:42:31;;;;;;;2.87;1.30;;;;;;;;;;5044432;28;20045;-88
2024/01/05 11:45:00;;;;;;;3.08;1.52;;;;;;;;;;5036078;28;20083;-90
2024/01/05 11:47:44;;;;;;;1.98;1.08;;;;;;;;;;5059813;28;20050;-90
2024/01/05 11:50:27;;;;;;;2.38;1.20;;;;;;;;;;5046788;28;20061;-90
2024/01/05 11:53:13;;;;;;;3.90;1.00;;;;;;;;;;5035684;28;20049;-89
2024/01/05 11:55:53;;;;;;;3.40;1.15;;;;;;;;;;5061929;28;20057;-90
2024/01/05 11:58:29;;;;;;;3.67;1.20;;;;;;;;;;5031968;28;20104;-90
2024/01/05 12:00:59;;;;;;;7.60;1.48;;;;;;;;;;5036483;28;20057;-89
2024/01/05 12:03:30;;;;;;;5.82;1.33;;;;;;;;;;5043097;28;20553;-89
2024/01/05 12:05:59;;;;;;;5.38;1.80;;;;;;;;;;5060022;28;20128;-89
2024/01/05 12:08:27;;;;;;;7.05;1.75;;;;;;;;;;5070050;28;20069;-89
2024/01/05 12:10:56;;;;;;;3.65;1.63;;;;;;;;;;5051273;28;20045;-88
2024/01/05 12:13:27;;;;;;;4.38;1.70;;;;;;;;;;5046207;28;20103;-91
2024/01/05 12:15:55;;;;;;;2.83;1.52;;;;;;;;;;5035193;28;20045;-89
2024/01/05 12:18:30;;;;;;;3.50;1.63;;;;;;;;;;5058158;28;20064;-90
2024/01/05 12:21:05;;;;;;;9.07;1.65;;;;;;;;;;5036668;28;20077;-88
2024/01/05 12:23:34;;;;;;;4.03;1.42;;;;;;;;;;5043559;28;20046;-89
2024/01/05 12:26:03;;;;;;;2.65;1.40;;;;;;;;;;5046393;28;20416;-89
2024/01/05 12:28:41;;;;;;;3.35;1.50;;;;;;;;;;5045501;28;20472;-88
2024/01/05 12:31:09;;;;;;;3.20;1.67;;;;;;;;;;5043826;28;20053;-89
2024/01/05 12:33:37;;;;;;;4.35;2.50;;;;;;;;;;5044559;28;20045;-90
2024/01/05 12:36:09;;;;;;;7.88;2.40;;;;;;;;;;5045902;28;20049;-89
2024/01/05 12:38:37;;;;;;;6.93;2.42;;;;;;;;;;5044408;28;20045;-89
2024/01/05 12:41:08;;;;;;;5.15;1.50;;;;;;;;;;5058951;28;20424;-90
2024/01/05 12:43:37;;;;;;;4.85;1.42;;;;;;;;;;5059996;28;20124;-89
2024/01/05 12:46:06;;;;;;;4.63;1.90;;;;;;;;;;5045172;28;20561;-90
2024/01/05 12:48:33;;;;;;;2.95;2.00;;;;;;;;;;5037013;28;20103;-89
2024/01/05 12:51:08;;;;;;;3.70;1.73;;;;;;;;;;5045882;28;20127;-89
2024/01/05 12:53:36;;;;;;;4.72;1.80;;;;;;;;;;5044283;28;20354;-88
2024/01/05 12:56:11;;;;;;;4.40;1.45;;;;;;;;;;5043295;28;20140;-89
2024/01/05 12:58:40;;;;;;;4.18;1.75;;;;;;;;;;5043721;28;20045;-89
2024/01/05 13:01:16;;;;;;;4.55;1.75;;;;;;;;;;5045307;28;20505;-89
2024/01/05 13:03:56;;;;;;;4.30;1.27;;;;;;;;;;5043024;28;20452;-88
2024/01/05 13:06:25;;;;;;;3.28;1.63;;;;;;;;;;5058136;28;20560;-89
2024/01/05 13:08:53;;;;;;;5.03;1.58;;;;;;;;;;5050195;28;20049;-88
2024/01/05 13:11:21;;;;;;;4.45;1.67;;;;;;;;;;5058066;28;20042;-89
2024/01/05 13:13:52;;;;;;;3.13;1.80;;;;;;;;;;5044556;28;20053;-91
2024/01/05 13:16:20;;;;;;;6.00;1.70;;;;;;;;;;5045034;28;20041;-88
2024/01/05 13:18:47;;;;;;;4.75;2.10;;;;;;;;;;5042265;28;20057;-89
2024/01/05 13:21:16;;;;;;;6.03;1.90;;;;;;;;;;5058683;28;20418;-89
2024/01/05 13:23:43;;;;;;;3.17;1.80;;;;;;;;;;5076124;28;20116;-89
2024/01/05 13:26:11;;;;;;;3.13;1.60;;;;;;;;;;5047463;28;20064;-90
2024/01/05 13:28:40;;;;;;;4.32;1.45;;;;;;;;;;5043482;28;20055;-90
2024/01/05 13:31:08;;;;;;;4.97;1.63;;;;;;;;;;5052374;28;20054;-90
2024/01/05 13:33:36;;;;;;;4.45;1.45;;;;;;;;;;5039400;28;20045;-88
2024/01/05 13:36:04;;;;;;;4.68;1.40;;;;;;;;;;5057929;28;20461;-89
2024/01/05 13:38:32;;;;;;;4.70;1.50;;;;;;;;;;5058457;28;20148;-90
2024/01/05 13:40:59;;;;;;;6.35;2.22;;;;;;;;;;5044705;28;20053;-90
2024/01/05 13:43:26;;;;;;;6.65;1.77;;;;;;;;;;5044564;28;20107;-88
2024/01/05 13:45:54;;;;;;;3.60;1.35;;;;;;;;;;5049726;28;20107;-90
2024/01/05 13:48:22;;;;;;;5.57;1.70;;;;;;;;;;5056816;28;20464;-90
2024/01/05 13:50:49;;;;;;;5.32;1.88;;;;;;;;;;5045116;28;20049;-90
2024/01/05 13:53:17;;;;;;;6.55;1.98;;;;;;;;;;5044211;28;20559;-89
2024/01/05 13:55:44;;;;;;;2.63;1.77;;;;;;;;;;5042577;28;20049;-89
2024/01/05 13:58:11;;;;;;;2.75;1.73;;;;;;;;;;5057352;28;20111;-90
2024/01/05 14:00:39;;;;;;;5.20;2.00;;;;;;;;;;5058988;28;20414;-89
2024/01/05 14:03:06;;;;;;;5.22;1.73;;;;;;;;;;5044366;28;20108;-88
2024/01/05 14:05:33;;;;;;;5.22;1.98;;;;;;;;;;5043932;28;20049;-90
2024/01/05 14:08:01;;;;;;;4.78;1.83;;;;;;;;;;5057527;28;20064;-91
2024/01/05 14:10:28;;;;;;;6.70;2.05;;;;;;;;;;5057679;28;20076;-89
2024/01/05 14:12:55;;;;;;;5.00;1.75;;;;;;;;;;5036710;28;20482;-89
2024/01/05 14:15:25;;;;;;;3.13;1.50;;;;;;;;;;5036930;28;20060;-89
2024/01/05 14:17:53;;;;;;;5.00;1.77;;;;;;;;;;5037799;28;20042;-90
2024/01/05 14:20:20;;;;;;;2.88;1.42;;;;;;;;;;4995872;28;20081;-90
2024/01/05 14:22:48;;;;;;;5.90;1.63;;;;;;;;;;5001847;28;20046;-90
2024/01/05 14:25:15;;;;;;;3.05;1.95;;;;;;;;;;5001663;28;20101;-89
2024/01/05 14:27:42;;;;;;;4.82;2.03;;;;;;;;;;4995181;28;20074;-89
2024/01/05 14:30:10;;;;;;;8.13;2.10;;;;;;;;;;5004155;28;20486;-91
2024/01/05 14:32:37;;;;;;;4.18;2.10;;;;;;;;;;5003177;28;20077;-90
2024/01/05 14:35:07;;;;;;;4.30;2.45;;;;;;;;;;5000944;28;20060;-89
2024/01/05 14:37:36;;;;;;;9.07;2.42;;;;;;;;;;5002479;28;20051;-90
2024/01/05 14:40:05;;;;;;;4.28;2.55;;;;;;;;;;5000090;28;20065;-89
2024/01/05 14:42:33;;;;;;;5.20;1.40;;;;;;;;;;4990293;28;20043;-89
2024/01/05 14:45:00;;;;;;;7.97;2.15;;;;;;;;;;4997444;28;20109;-89